sensor_id;sensor_type;location;lat;lon;timestamp;pressure;altitude;pressure_sealevel;temperature;humidity
76478;BME280;65309;49.790;18.972;2023-08-07T00:02:25;60146.38;;;-145.46;78.91
76478;BME280;65309;49.790;18.972;2023-08-07T00:07:27;60150.59;;;-145.46;80.17
76478;BME280;65309;49.790;18.972;2023-08-07T00:12:30;60144.28;;;-145.46;80.28
76478;BME280;65309;49.790;18.972;2023-08-07T00:17:32;60133.78;;;-145.46;80.84
76478;BME280;65309;49.790;18.972;2023-08-07T00:22:34;60129.56;;;-145.46;80.64
76478;BME280;65309;49.790;18.972;2023-08-07T00:27:38;60125.38;;;-145.46;81.03
76478;BME280;65309;49.790;18.972;2023-08-07T00:32:40;60123.25;;;-145.46;81.52
76478;BME280;65309;49.790;18.972;2023-08-07T00:37:42;60110.66;;;-145.46;81.23
76478;BME280;65309;49.790;18.972;2023-08-07T00:42:45;60140.09;;;-145.46;80.73
76478;BME280;65309;49.790;18.972;2023-08-07T00:47:47;60125.38;;;-145.46;81.08
76478;BME280;65309;49.790;18.972;2023-08-07T00:52:50;60137.97;;;-145.46;81.35
76478;BME280;65309;49.790;18.972;2023-08-07T00:57:53;60127.47;;;-145.46;81.32
76478;BME280;65309;49.790;18.972;2023-08-07T01:02:56;60148.50;;;-145.46;81.50
76478;BME280;65309;49.790;18.972;2023-08-07T01:07:58;60104.34;;;-145.46;81.03
76478;BME280;65309;49.790;18.972;2023-08-07T01:13:12;60112.75;;;-145.46;81.68
76478;BME280;65309;49.790;18.972;2023-08-07T01:18:16;60142.19;;;-145.46;81.27
76478;BME280;65309;49.790;18.972;2023-08-07T01:23:20;60154.81;;;-145.46;80.85
76478;BME280;65309;49.790;18.972;2023-08-07T01:28:27;60131.69;;;-145.46;81.11
76478;BME280;65309;49.790;18.972;2023-08-07T01:33:32;60116.97;;;-145.46;80.50
76478;BME280;65309;49.790;18.972;2023-08-07T01:38:38;60150.59;;;-145.46;80.69
76478;BME280;65309;49.790;18.972;2023-08-07T01:43:40;60127.47;;;-145.46;80.85
76478;BME280;65309;49.790;18.972;2023-08-07T01:48:42;60121.16;;;-145.46;80.36
76478;BME280;65309;49.790;18.972;2023-08-07T01:53:46;60159.00;;;-145.46;80.26
76478;BME280;65309;49.790;18.972;2023-08-07T01:58:49;60102.25;;;-145.46;80.87
76478;BME280;65309;49.790;18.972;2023-08-07T02:03:51;60106.44;;;-145.46;81.43
76478;BME280;65309;49.790;18.972;2023-08-07T02:08:55;60142.19;;;-145.46;81.94
76478;BME280;65309;49.790;18.972;2023-08-07T02:13:57;60163.22;;;-145.46;82.64
76478;BME280;65309;49.790;18.972;2023-08-07T02:18:59;60142.19;;;-145.46;82.87
76478;BME280;65309;49.790;18.972;2023-08-07T02:24:03;60110.66;;;-145.46;82.73
76478;BME280;65309;49.790;18.972;2023-08-07T02:29:05;60184.22;;;-145.46;83.33
76478;BME280;65309;49.790;18.972;2023-08-07T02:34:09;60150.59;;;-145.46;83.94
76478;BME280;65309;49.790;18.972;2023-08-07T02:39:13;60140.09;;;-145.46;84.71
76478;BME280;65309;49.790;18.972;2023-08-07T02:44:15;60106.44;;;-145.46;85.59
76478;BME280;65309;49.790;18.972;2023-08-07T02:49:19;60154.81;;;-145.46;85.78
76478;BME280;65309;49.790;18.972;2023-08-07T02:54:22;60119.06;;;-145.46;86.82
76478;BME280;65309;49.790;18.972;2023-08-07T02:59:25;60129.56;;;-145.46;86.72
76478;BME280;65309;49.790;18.972;2023-08-07T03:04:27;60129.56;;;-144.17;100.00
76478;BME280;65309;49.790;18.972;2023-08-07T03:09:30;70918.97;;;-145.47;100.00
76478;BME280;65309;49.790;18.972;2023-08-07T03:14:32;70918.97;;;-145.47;100.00
76478;BME280;65309;49.790;18.972;2023-08-07T03:19:35;70918.97;;;-145.47;100.00
76478;BME280;65309;49.790;18.972;2023-08-07T03:24:38;70918.97;;;-145.47;100.00
76478;BME280;65309;49.790;18.972;2023-08-07T03:29:40;70918.97;;;-145.47;100.00
76478;BME280;65309;49.790;18.972;2023-08-07T03:34:46;70918.97;;;-145.47;100.00
76478;BME280;65309;49.790;18.972;2023-08-07T03:39:50;60146.38;;;-145.46;85.10
76478;BME280;65309;49.790;18.972;2023-08-07T03:44:52;60152.69;;;-145.46;84.60
76478;BME280;65309;49.790;18.972;2023-08-07T03:49:54;60184.22;;;-145.46;84.40
76478;BME280;65309;49.790;18.972;2023-08-07T03:54:57;60150.59;;;-145.46;84.52
76478;BME280;65309;49.790;18.972;2023-08-07T03:59:59;60150.59;;;-145.46;83.77
76478;BME280;65309;49.790;18.972;2023-08-07T04:05:02;60127.47;;;-145.46;84.06
76478;BME280;65309;49.790;18.972;2023-08-07T04:10:05;60129.56;;;-145.46;83.31
76478;BME280;65309;49.790;18.972;2023-08-07T04:15:08;60150.59;;;-145.46;83.41
76478;BME280;65309;49.790;18.972;2023-08-07T04:20:11;60142.19;;;-145.46;82.27
76478;BME280;65309;49.790;18.972;2023-08-07T04:25:15;60110.66;;;-145.46;82.22
76478;BME280;65309;49.790;18.972;2023-08-07T04:30:17;60119.06;;;-145.46;80.84
76478;BME280;65309;49.790;18.972;2023-08-07T04:35:19;60131.69;;;-145.46;81.03
76478;BME280;65309;49.790;18.972;2023-08-07T04:40:23;60121.16;;;-145.46;79.90
76478;BME280;65309;49.790;18.972;2023-08-07T04:45:25;60142.19;;;-145.46;79.95
76478;BME280;65309;49.790;18.972;2023-08-07T04:50:27;60104.34;;;-145.46;78.50
76478;BME280;65309;49.790;18.972;2023-08-07T04:55:30;60119.06;;;-145.46;77.38
76478;BME280;65309;49.790;18.972;2023-08-07T05:00:33;60131.69;;;-145.46;75.30
76478;BME280;65309;49.790;18.972;2023-08-07T05:05:35;60106.44;;;-145.46;74.45
76478;BME280;65309;49.790;18.972;2023-08-07T05:10:38;60102.25;;;-145.46;74.14
76478;BME280;65309;49.790;18.972;2023-08-07T05:15:40;60108.56;;;-145.46;74.21
76478;BME280;65309;49.790;18.972;2023-08-07T05:20:42;60114.84;;;-145.46;74.02
76478;BME280;65309;49.790;18.972;2023-08-07T05:25:46;60100.13;;;-145.46;73.81
76478;BME280;65309;49.790;18.972;2023-08-07T05:30:50;60133.78;;;-145.46;73.74
76478;BME280;65309;49.790;18.972;2023-08-07T05:35:52;60087.53;;;-145.46;73.79
76478;BME280;65309;49.790;18.972;2023-08-07T05:40:56;60095.94;;;-145.46;72.52
76478;BME280;65309;49.790;18.972;2023-08-07T05:45:58;60137.97;;;-145.46;74.22
76478;BME280;65309;49.790;18.972;2023-08-07T05:51:00;60085.44;;;-145.46;73.10
76478;BME280;65309;49.790;18.972;2023-08-07T05:56:03;60108.56;;;-145.46;73.39
76478;BME280;65309;49.790;18.972;2023-08-07T06:01:05;60062.31;;;-145.46;72.43
76478;BME280;65309;49.790;18.972;2023-08-07T06:06:07;60104.34;;;-145.46;71.21
76478;BME280;65309;49.790;18.972;2023-08-07T06:11:11;60066.50;;;-145.46;73.03
76478;BME280;65309;49.790;18.972;2023-08-07T06:16:13;60077.00;;;-145.46;72.87
76478;BME280;65309;49.790;18.972;2023-08-07T06:21:15;60095.94;;;-145.46;73.32
76478;BME280;65309;49.790;18.972;2023-08-07T06:26:19;60100.13;;;-145.46;72.06
76478;BME280;65309;49.790;18.972;2023-08-07T06:31:21;60095.94;;;-145.46;71.09
76478;BME280;65309;49.790;18.972;2023-08-07T06:36:23;60079.13;;;-145.46;70.23
76478;BME280;65309;49.790;18.972;2023-08-07T06:41:26;60102.25;;;-145.46;70.10
76478;BME280;65309;49.790;18.972;2023-08-07T06:46:28;60108.56;;;-145.46;71.47
76478;BME280;65309;49.790;18.972;2023-08-07T06:51:30;60121.16;;;-145.46;71.35
76478;BME280;65309;49.790;18.972;2023-08-07T06:56:33;60137.97;;;-145.46;72.13
76478;BME280;65309;49.790;18.972;2023-08-07T07:01:36;60116.97;;;-145.46;72.15
76478;BME280;65309;49.790;18.972;2023-08-07T07:06:38;60108.56;;;-145.46;73.01
76478;BME280;65309;49.790;18.972;2023-08-07T07:11:42;60108.56;;;-145.46;73.12
76478;BME280;65309;49.790;18.972;2023-08-07T07:16:45;60131.69;;;-145.46;72.75
76478;BME280;65309;49.790;18.972;2023-08-07T07:21:47;60123.25;;;-145.46;72.78
76478;BME280;65309;49.790;18.972;2023-08-07T07:26:50;60125.38;;;-145.46;72.21
76478;BME280;65309;49.790;18.972;2023-08-07T07:31:52;60127.47;;;-145.46;71.51
76478;BME280;65309;49.790;18.972;2023-08-07T07:36:57;60087.53;;;-145.46;71.26
76478;BME280;65309;49.790;18.972;2023-08-07T07:42:00;60108.56;;;-145.46;71.46
76478;BME280;65309;49.790;18.972;2023-08-07T07:47:03;60125.38;;;-145.46;71.86
76478;BME280;65309;49.790;18.972;2023-08-07T07:52:06;60081.22;;;-145.46;71.91
76478;BME280;65309;49.790;18.972;2023-08-07T07:57:10;60108.56;;;-145.46;72.76
76478;BME280;65309;49.790;18.972;2023-08-07T08:02:12;60087.53;;;-145.46;74.06
76478;BME280;65309;49.790;18.972;2023-08-07T08:07:14;60085.44;;;-145.46;73.61
76478;BME280;65309;49.790;18.972;2023-08-07T08:12:18;60140.09;;;-145.46;73.92
76478;BME280;65309;49.790;18.972;2023-08-07T08:17:20;60108.56;;;-145.46;77.06
76478;BME280;65309;49.790;18.972;2023-08-07T08:22:22;60114.84;;;-145.46;77.31
76478;BME280;65309;49.790;18.972;2023-08-07T08:27:26;60095.94;;;-145.46;76.85
76478;BME280;65309;49.790;18.972;2023-08-07T08:32:28;60079.13;;;-145.46;75.80
76478;BME280;65309;49.790;18.972;2023-08-07T08:37:30;60121.16;;;-145.46;74.65
76478;BME280;65309;49.790;18.972;2023-08-07T08:42:34;60083.31;;;-145.46;75.25
76478;BME280;65309;49.790;18.972;2023-08-07T08:47:36;60091.72;;;-145.46;73.46
76478;BME280;65309;49.790;18.972;2023-08-07T08:52:42;60106.44;;;-145.46;71.28
76478;BME280;65309;49.790;18.972;2023-08-07T08:57:47;60053.91;;;-145.46;71.97
76478;BME280;65309;49.790;18.972;2023-08-07T09:02:50;60081.22;;;-145.46;69.20
76478;BME280;65309;49.790;18.972;2023-08-07T09:07:52;60049.69;;;-145.46;70.08
76478;BME280;65309;49.790;18.972;2023-08-07T09:13:00;60121.16;;;-145.46;69.77
76478;BME280;65309;49.790;18.972;2023-08-07T09:18:05;60081.22;;;-145.46;71.10
76478;BME280;65309;49.790;18.972;2023-08-07T09:23:09;60068.59;;;-145.46;70.80
76478;BME280;65309;49.790;18.972;2023-08-07T09:28:13;60074.91;;;-145.46;68.96
76478;BME280;65309;49.790;18.972;2023-08-07T09:33:15;60114.84;;;-145.46;69.93
76478;BME280;65309;49.790;18.972;2023-08-07T09:38:28;60104.34;;;-145.46;69.21
76478;BME280;65309;49.790;18.972;2023-08-07T09:43:35;60087.53;;;-145.46;71.27
76478;BME280;65309;49.790;18.972;2023-08-07T09:48:42;60121.16;;;-145.46;69.98
76478;BME280;65309;49.790;18.972;2023-08-07T09:53:46;60053.91;;;-145.46;68.60
76478;BME280;65309;49.790;18.972;2023-08-07T09:58:52;60077.00;;;-145.46;67.77
76478;BME280;65309;49.790;18.972;2023-08-07T10:03:55;60053.91;;;-145.46;67.01
76478;BME280;65309;49.790;18.972;2023-08-07T10:08:57;60091.72;;;-145.46;66.89
76478;BME280;65309;49.790;18.972;2023-08-07T10:14:04;60085.44;;;-145.46;68.85
76478;BME280;65309;49.790;18.972;2023-08-07T10:19:06;60066.50;;;-145.46;69.05
76478;BME280;65309;49.790;18.972;2023-08-07T10:24:11;60068.59;;;-145.46;68.91
76478;BME280;65309;49.790;18.972;2023-08-07T10:29:17;60079.13;;;-145.46;68.17
76478;BME280;65309;49.790;18.972;2023-08-07T10:34:21;60053.91;;;-145.46;68.03
76478;BME280;65309;49.790;18.972;2023-08-07T10:39:23;60081.22;;;-145.46;67.70
76478;BME280;65309;49.790;18.972;2023-08-07T10:44:30;60102.25;;;-145.46;66.40
76478;BME280;65309;49.790;18.972;2023-08-07T10:49:36;60011.84;;;-145.46;65.31
76478;BME280;65309;49.790;18.972;2023-08-07T10:54:39;60089.63;;;-145.46;66.32
76478;BME280;65309;49.790;18.972;2023-08-07T10:59:49;60041.28;;;-145.46;66.91
76478;BME280;65309;49.790;18.972;2023-08-07T11:04:52;60041.28;;;-145.46;65.35
76478;BME280;65309;49.790;18.972;2023-08-07T11:09:55;60028.66;;;-145.46;66.61
76478;BME280;65309;49.790;18.972;2023-08-07T11:14:58;60022.34;;;-145.46;64.98
76478;BME280;65309;49.790;18.972;2023-08-07T11:20:01;60053.91;;;-145.46;67.88
76478;BME280;65309;49.790;18.972;2023-08-07T11:25:04;60129.56;;;-145.46;74.38
76478;BME280;65309;49.790;18.972;2023-08-07T11:30:12;60053.91;;;-145.46;77.35
76478;BME280;65309;49.790;18.972;2023-08-07T11:35:14;60091.72;;;-145.46;78.25
76478;BME280;65309;49.790;18.972;2023-08-07T11:40:17;60068.59;;;-145.46;79.95
76478;BME280;65309;49.790;18.972;2023-08-07T11:45:20;60085.44;;;-145.46;78.45
76478;BME280;65309;49.790;18.972;2023-08-07T11:50:22;60100.13;;;-145.46;81.54
76478;BME280;65309;49.790;18.972;2023-08-07T11:55:24;60070.72;;;-145.46;79.89
76478;BME280;65309;49.790;18.972;2023-08-07T12:00:28;60070.72;;;-145.46;79.69
76478;BME280;65309;49.790;18.972;2023-08-07T12:05:38;60070.72;;;-145.46;81.41
76478;BME280;65309;49.790;18.972;2023-08-07T12:10:40;60083.31;;;-145.46;83.87
76478;BME280;65309;49.790;18.972;2023-08-07T12:15:44;60108.56;;;-145.46;83.94
76478;BME280;65309;49.790;18.972;2023-08-07T12:20:46;60077.00;;;-145.46;84.53
76478;BME280;65309;49.790;18.972;2023-08-07T12:25:48;60089.63;;;-145.46;82.15
76478;BME280;65309;49.790;18.972;2023-08-07T12:30:52;60083.31;;;-145.46;80.78
76478;BME280;65309;49.790;18.972;2023-08-07T12:35:54;60087.53;;;-145.46;80.83
76478;BME280;65309;49.790;18.972;2023-08-07T12:40:56;60095.94;;;-145.46;81.24
76478;BME280;65309;49.790;18.972;2023-08-07T12:46:00;60087.53;;;-145.46;80.32
76478;BME280;65309;49.790;18.972;2023-08-07T12:51:06;60116.97;;;-145.46;82.57
76478;BME280;65309;49.790;18.972;2023-08-07T12:56:08;60119.06;;;-145.46;81.17
76478;BME280;65309;49.790;18.972;2023-08-07T13:01:11;60121.16;;;-145.46;82.58
76478;BME280;65309;49.790;18.972;2023-08-07T13:06:14;60100.13;;;-145.46;81.59
76478;BME280;65309;49.790;18.972;2023-08-07T13:11:16;60116.97;;;-145.46;81.87
76478;BME280;65309;49.790;18.972;2023-08-07T13:16:19;60142.19;;;-145.46;80.49
76478;BME280;65309;49.790;18.972;2023-08-07T13:21:21;60161.09;;;-145.46;80.88
76478;BME280;65309;49.790;18.972;2023-08-07T13:26:23;60133.78;;;-145.46;79.77
76478;BME280;65309;49.790;18.972;2023-08-07T13:31:27;60121.16;;;-145.46;79.64
76478;BME280;65309;49.790;18.972;2023-08-07T13:36:29;60083.31;;;-145.46;81.23
76478;BME280;65309;49.790;18.972;2023-08-07T13:41:32;60125.38;;;-145.46;80.80
76478;BME280;65309;49.790;18.972;2023-08-07T13:46:36;60085.44;;;-145.46;80.45
76478;BME280;65309;49.790;18.972;2023-08-07T13:51:40;60098.03;;;-145.46;80.79
76478;BME280;65309;49.790;18.972;2023-08-07T13:56:42;60116.97;;;-145.46;78.63
76478;BME280;65309;49.790;18.972;2023-08-07T14:01:45;60091.72;;;-145.46;75.31
76478;BME280;65309;49.790;18.972;2023-08-07T14:06:47;60108.56;;;-145.46;72.73
76478;BME280;65309;49.790;18.972;2023-08-07T14:11:50;60098.03;;;-145.46;72.52
76478;BME280;65309;49.790;18.972;2023-08-07T14:16:53;60091.72;;;-145.46;71.52
76478;BME280;65309;49.790;18.972;2023-08-07T14:21:59;60062.31;;;-145.46;71.65
76478;BME280;65309;49.790;18.972;2023-08-07T14:27:01;60032.88;;;-145.46;69.65
76478;BME280;65309;49.790;18.972;2023-08-07T14:32:07;60074.91;;;-145.46;67.68
76478;BME280;65309;49.790;18.972;2023-08-07T14:37:09;60095.94;;;-145.46;69.77
76478;BME280;65309;49.790;18.972;2023-08-07T14:42:12;60104.34;;;-145.46;66.35
76478;BME280;65309;49.790;18.972;2023-08-07T14:47:15;60102.25;;;-145.46;66.68
76478;BME280;65309;49.790;18.972;2023-08-07T14:52:17;60051.78;;;-145.46;65.41
76478;BME280;65309;49.790;18.972;2023-08-07T14:57:19;60074.91;;;-145.46;65.85
76478;BME280;65309;49.790;18.972;2023-08-07T15:02:23;60081.22;;;-145.46;66.68
76478;BME280;65309;49.790;18.972;2023-08-07T15:07:25;60079.13;;;-145.46;63.98
76478;BME280;65309;49.790;18.972;2023-08-07T15:12:27;60083.31;;;-145.46;65.00
76478;BME280;65309;49.790;18.972;2023-08-07T15:17:30;60079.13;;;-145.46;65.99
76478;BME280;65309;49.790;18.972;2023-08-07T15:22:32;60104.34;;;-145.46;66.68
76478;BME280;65309;49.790;18.972;2023-08-07T15:27:34;60049.69;;;-145.46;64.70
76478;BME280;65309;49.790;18.972;2023-08-07T15:32:38;60039.19;;;-145.46;65.19
76478;BME280;65309;49.790;18.972;2023-08-07T15:37:40;60053.91;;;-145.46;65.12
76478;BME280;65309;49.790;18.972;2023-08-07T15:42:42;60039.19;;;-145.46;65.96
76478;BME280;65309;49.790;18.972;2023-08-07T15:47:48;60074.91;;;-145.46;67.59
76478;BME280;65309;49.790;18.972;2023-08-07T15:52:51;60079.13;;;-145.46;68.26
76478;BME280;65309;49.790;18.972;2023-08-07T15:57:53;60123.25;;;-145.46;69.08
76478;BME280;65309;49.790;18.972;2023-08-07T16:02:56;60108.56;;;-145.46;68.75
76478;BME280;65309;49.790;18.972;2023-08-07T16:07:58;60060.19;;;-145.46;69.46
76478;BME280;65309;49.790;18.972;2023-08-07T16:13:01;60091.72;;;-145.46;70.85
76478;BME280;65309;49.790;18.972;2023-08-07T16:18:04;60121.16;;;-145.46;69.77
76478;BME280;65309;49.790;18.972;2023-08-07T16:23:07;60091.72;;;-145.46;71.03
76478;BME280;65309;49.790;18.972;2023-08-07T16:28:09;60083.31;;;-145.46;71.44
76478;BME280;65309;49.790;18.972;2023-08-07T16:33:13;60074.91;;;-145.46;72.83
76478;BME280;65309;49.790;18.972;2023-08-07T16:38:15;60116.97;;;-145.46;72.62
76478;BME280;65309;49.790;18.972;2023-08-07T16:43:17;60087.53;;;-145.46;72.66
76478;BME280;65309;49.790;18.972;2023-08-07T16:48:20;60108.56;;;-145.46;73.04
76478;BME280;65309;49.790;18.972;2023-08-07T16:53:22;60089.63;;;-145.46;73.69
76478;BME280;65309;49.790;18.972;2023-08-07T16:58:24;60108.56;;;-145.46;72.51
76478;BME280;65309;49.790;18.972;2023-08-07T17:03:29;60100.13;;;-145.46;72.83
76478;BME280;65309;49.790;18.972;2023-08-07T17:08:31;60110.66;;;-145.46;73.87
76478;BME280;65309;49.790;18.972;2023-08-07T17:13:36;60131.69;;;-145.46;73.76
76478;BME280;65309;49.790;18.972;2023-08-07T17:18:39;60100.13;;;-145.46;74.02
76478;BME280;65309;49.790;18.972;2023-08-07T17:23:41;60108.56;;;-145.46;74.62
76478;BME280;65309;49.790;18.972;2023-08-07T17:28:43;60133.78;;;-145.46;75.13
76478;BME280;65309;49.790;18.972;2023-08-07T17:33:47;60112.75;;;-145.46;76.27
76478;BME280;65309;49.790;18.972;2023-08-07T17:38:49;60106.44;;;-145.46;76.97
76478;BME280;65309;49.790;18.972;2023-08-07T17:43:51;60100.13;;;-145.46;77.56
76478;BME280;65309;49.790;18.972;2023-08-07T17:48:55;60087.53;;;-145.46;77.18
76478;BME280;65309;49.790;18.972;2023-08-07T17:53:57;60121.16;;;-145.46;76.11
76478;BME280;65309;49.790;18.972;2023-08-07T17:58:59;60133.78;;;-145.46;77.60
76478;BME280;65309;49.790;18.972;2023-08-07T18:04:03;60121.16;;;-145.46;77.53
76478;BME280;65309;49.790;18.972;2023-08-07T18:09:06;60104.34;;;-145.46;77.68
76478;BME280;65309;49.790;18.972;2023-08-07T18:14:08;60116.97;;;-145.46;77.39
76478;BME280;65309;49.790;18.972;2023-08-07T18:19:11;60112.75;;;-145.46;77.37
76478;BME280;65309;49.790;18.972;2023-08-07T18:24:15;60106.44;;;-145.46;77.97
76478;BME280;65309;49.790;18.972;2023-08-07T18:29:18;60110.66;;;-145.46;77.23
76478;BME280;65309;49.790;18.972;2023-08-07T18:34:21;60072.81;;;-145.46;76.62
76478;BME280;65309;49.790;18.972;2023-08-07T18:39:23;60133.78;;;-145.46;77.38
76478;BME280;65309;49.790;18.972;2023-08-07T18:44:25;60119.06;;;-145.46;77.39
76478;BME280;65309;49.790;18.972;2023-08-07T18:49:29;60114.84;;;-145.46;77.79
76478;BME280;65309;49.790;18.972;2023-08-07T18:54:31;60121.16;;;-145.46;78.45
76478;BME280;65309;49.790;18.972;2023-08-07T18:59:33;60087.53;;;-145.46;79.50
76478;BME280;65309;49.790;18.972;2023-08-07T19:04:37;60110.66;;;-145.46;79.09
76478;BME280;65309;49.790;18.972;2023-08-07T19:09:39;60108.56;;;-145.46;79.31
76478;BME280;65309;49.790;18.972;2023-08-07T19:14:41;60131.69;;;-145.46;79.23
76478;BME280;65309;49.790;18.972;2023-08-07T19:19:45;60081.22;;;-145.46;78.66
76478;BME280;65309;49.790;18.972;2023-08-07T19:24:47;60129.56;;;-145.46;77.92
76478;BME280;65309;49.790;18.972;2023-08-07T19:29:49;60106.44;;;-145.46;77.83
76478;BME280;65309;49.790;18.972;2023-08-07T19:34:53;60083.31;;;-145.46;77.28
76478;BME280;65309;49.790;18.972;2023-08-07T19:39:55;60108.56;;;-145.46;76.62
76478;BME280;65309;49.790;18.972;2023-08-07T19:44:57;60114.84;;;-145.46;77.35
76478;BME280;65309;49.790;18.972;2023-08-07T19:50:00;60089.63;;;-145.46;76.95
76478;BME280;65309;49.790;18.972;2023-08-07T19:55:03;60098.03;;;-145.46;76.63
76478;BME280;65309;49.790;18.972;2023-08-07T20:00:06;60095.94;;;-145.46;76.21
76478;BME280;65309;49.790;18.972;2023-08-07T20:05:10;60123.25;;;-145.46;76.53
76478;BME280;65309;49.790;18.972;2023-08-07T20:10:12;60119.06;;;-145.46;77.07
76478;BME280;65309;49.790;18.972;2023-08-07T20:15:15;60089.63;;;-145.46;77.19
76478;BME280;65309;49.790;18.972;2023-08-07T20:20:19;60123.25;;;-145.46;76.51
76478;BME280;65309;49.790;18.972;2023-08-07T20:25:22;60083.31;;;-145.46;76.18
76478;BME280;65309;49.790;18.972;2023-08-07T20:30:24;60095.94;;;-145.46;75.52
76478;BME280;65309;49.790;18.972;2023-08-07T20:35:28;60108.56;;;-145.46;76.05
76478;BME280;65309;49.790;18.972;2023-08-07T20:40:31;60112.75;;;-145.46;75.78
76478;BME280;65309;49.790;18.972;2023-08-07T20:45:33;60108.56;;;-145.46;75.90
76478;BME280;65309;49.790;18.972;2023-08-07T20:50:36;60074.91;;;-145.46;75.86
76478;BME280;65309;49.790;18.972;2023-08-07T20:55:38;60098.03;;;-145.46;76.00
76478;BME280;65309;49.790;18.972;2023-08-07T21:00:40;60104.34;;;-145.46;76.12
76478;BME280;65309;49.790;18.972;2023-08-07T21:05:44;60074.91;;;-145.46;76.91
76478;BME280;65309;49.790;18.972;2023-08-07T21:10:46;60108.56;;;-145.46;76.93
76478;BME280;65309;49.790;18.972;2023-08-07T21:15:48;60146.38;;;-145.46;77.11
76478;BME280;65309;49.790;18.972;2023-08-07T21:20:52;60100.13;;;-145.46;77.35
76478;BME280;65309;49.790;18.972;2023-08-07T21:25:54;60125.38;;;-145.46;77.85
76478;BME280;65309;49.790;18.972;2023-08-07T21:30:56;60100.13;;;-145.46;77.46
76478;BME280;65309;49.790;18.972;2023-08-07T21:35:59;60091.72;;;-145.46;77.32
76478;BME280;65309;49.790;18.972;2023-08-07T21:41:02;60070.72;;;-145.46;77.26
76478;BME280;65309;49.790;18.972;2023-08-07T21:46:04;60116.97;;;-145.46;76.66
76478;BME280;65309;49.790;18.972;2023-08-07T21:51:07;60053.91;;;-145.46;78.38
76478;BME280;65309;49.790;18.972;2023-08-07T21:56:09;60121.16;;;-145.46;79.58
76478;BME280;65309;49.790;18.972;2023-08-07T22:01:11;60102.25;;;-145.46;80.40
76478;BME280;65309;49.790;18.972;2023-08-07T22:06:15;60102.25;;;-145.46;79.79
76478;BME280;65309;49.790;18.972;2023-08-07T22:11:17;60102.25;;;-145.46;80.01
76478;BME280;65309;49.790;18.972;2023-08-07T22:16:19;60074.91;;;-145.46;79.95
76478;BME280;65309;49.790;18.972;2023-08-07T22:21:23;60100.13;;;-145.46;78.62
76478;BME280;65309;49.790;18.972;2023-08-07T22:26:26;60127.47;;;-145.46;79.12
76478;BME280;65309;49.790;18.972;2023-08-07T22:31:28;60100.13;;;-145.46;78.85
76478;BME280;65309;49.790;18.972;2023-08-07T22:36:31;60112.75;;;-145.46;78.02
76478;BME280;65309;49.790;18.972;2023-08-07T22:41:33;60095.94;;;-145.46;78.82
76478;BME280;65309;49.790;18.972;2023-08-07T22:46:35;60106.44;;;-145.46;78.97
76478;BME280;65309;49.790;18.972;2023-08-07T22:51:39;60110.66;;;-145.46;78.75
76478;BME280;65309;49.790;18.972;2023-08-07T22:56:41;60119.06;;;-145.46;78.13
76478;BME280;65309;49.790;18.972;2023-08-07T23:01:43;60137.97;;;-145.46;78.22
76478;BME280;65309;49.790;18.972;2023-08-07T23:06:46;60129.56;;;-145.46;78.15
76478;BME280;65309;49.790;18.972;2023-08-07T23:11:48;60142.19;;;-145.46;78.15
76478;BME280;65309;49.790;18.972;2023-08-07T23:16:50;60116.97;;;-145.46;78.49
76478;BME280;65309;49.790;18.972;2023-08-07T23:21:54;60133.78;;;-145.46;78.66
76478;BME280;65309;49.790;18.972;2023-08-07T23:26:57;60123.25;;;-145.46;78.66
76478;BME280;65309;49.790;18.972;2023-08-07T23:31:59;60121.16;;;-145.46;79.38
76478;BME280;65309;49.790;18.972;2023-08-07T23:37:03;60093.84;;;-145.46;79.05
76478;BME280;65309;49.790;18.972;2023-08-07T23:42:05;60142.19;;;-145.46;78.55
76478;BME280;65309;49.790;18.972;2023-08-07T23:47:07;60102.25;;;-145.46;79.23
76478;BME280;65309;49.790;18.972;2023-08-07T23:52:11;60077.00;;;-145.46;78.64
76478;BME280;65309;49.790;18.972;2023-08-07T23:57:13;60116.97;;;-145.46;80.36
